sensor_id;sensor_type;location;lat;lon;timestamp;pressure;altitude;pressure_sealevel;temperature;humidity
47761;BME280;33524;55.434;38.520;2023-05-15T00:01:47;101029.34;;;7.13;61.07
47761;BME280;33524;55.434;38.520;2023-05-15T00:04:15;101052.75;;;7.16;60.32
47761;BME280;33524;55.434;38.520;2023-05-15T00:06:43;101058.38;;;6.89;62.95
47761;BME280;33524;55.434;38.520;2023-05-15T00:09:12;101048.84;;;7.24;58.65
47761;BME280;33524;55.434;38.520;2023-05-15T00:11:40;101060.06;;;7.09;58.89
47761;BME280;33524;55.434;38.520;2023-05-15T00:14:08;101036.22;;;6.96;58.83
47761;BME280;33524;55.434;38.520;2023-05-15T00:16:36;101063.03;;;7.01;59.12
47761;BME280;33524;55.434;38.520;2023-05-15T00:19:04;101043.19;;;7.15;58.11
47761;BME280;33524;55.434;38.520;2023-05-15T00:21:32;101054.91;;;6.89;60.11
47761;BME280;33524;55.434;38.520;2023-05-15T00:24:00;101061.25;;;6.64;62.33
47761;BME280;33524;55.434;38.520;2023-05-15T00:26:29;101062.88;;;6.47;64.05
47761;BME280;33524;55.434;38.520;2023-05-15T00:28:57;101052.12;;;6.54;61.85
47761;BME280;33524;55.434;38.520;2023-05-15T00:31:25;101067.06;;;6.31;67.49
47761;BME280;33524;55.434;38.520;2023-05-15T00:33:54;101060.22;;;5.87;68.96
47761;BME280;33524;55.434;38.520;2023-05-15T00:36:22;101057.16;;;5.56;71.25
47761;BME280;33524;55.434;38.520;2023-05-15T00:38:52;101060.06;;;5.70;68.42
47761;BME280;33524;55.434;38.520;2023-05-15T00:41:21;101062.28;;;5.59;68.64
47761;BME280;33524;55.434;38.520;2023-05-15T00:43:50;101069.75;;;5.46;70.05
47761;BME280;33524;55.434;38.520;2023-05-15T00:46:19;101063.81;;;5.42;68.75
47761;BME280;33524;55.434;38.520;2023-05-15T00:48:49;101064.53;;;5.46;67.05
47761;BME280;33524;55.434;38.520;2023-05-15T00:51:18;101056.56;;;5.49;65.94
47761;BME280;33524;55.434;38.520;2023-05-15T00:53:46;101050.00;;;5.61;66.25
47761;BME280;33524;55.434;38.520;2023-05-15T00:56:19;101054.81;;;5.50;68.44
47761;BME280;33524;55.434;38.520;2023-05-15T00:58:48;101059.12;;;5.51;68.07
47761;BME280;33524;55.434;38.520;2023-05-15T01:01:17;101061.91;;;5.89;64.37
47761;BME280;33524;55.434;38.520;2023-05-15T01:03:46;101050.34;;;5.74;66.15
47761;BME280;33524;55.434;38.520;2023-05-15T01:06:14;101059.66;;;5.59;66.81
47761;BME280;33524;55.434;38.520;2023-05-15T01:08:45;101060.56;;;5.58;67.98
47761;BME280;33524;55.434;38.520;2023-05-15T01:11:15;101073.63;;;5.36;69.82
47761;BME280;33524;55.434;38.520;2023-05-15T01:13:45;101068.06;;;5.23;70.78
47761;BME280;33524;55.434;38.520;2023-05-15T01:16:13;101073.34;;;4.76;77.96
47761;BME280;33524;55.434;38.520;2023-05-15T01:18:41;101069.50;;;5.08;69.02
47761;BME280;33524;55.434;38.520;2023-05-15T01:27:25;101072.94;;;4.39;78.50
47761;BME280;33524;55.434;38.520;2023-05-15T01:35:40;101066.56;;;3.98;89.89
47761;BME280;33524;55.434;38.520;2023-05-15T01:41:27;101074.25;;;4.51;81.96
47761;BME280;33524;55.434;38.520;2023-05-15T01:46:56;101077.78;;;6.25;63.50
47761;BME280;33524;55.434;38.520;2023-05-15T01:49:27;101079.56;;;6.24;63.16
47761;BME280;33524;55.434;38.520;2023-05-15T01:52:53;101079.56;;;6.04;64.75
47761;BME280;33524;55.434;38.520;2023-05-15T01:55:12;101086.97;;;6.34;62.18
47761;BME280;33524;55.434;38.520;2023-05-15T01:57:41;101076.91;;;5.83;64.49
47761;BME280;33524;55.434;38.520;2023-05-15T02:00:12;101092.13;;;5.30;67.81
47761;BME280;33524;55.434;38.520;2023-05-15T02:02:41;101080.06;;;5.49;70.06
47761;BME280;33524;55.434;38.520;2023-05-15T02:05:12;101079.53;;;5.19;72.80
47761;BME280;33524;55.434;38.520;2023-05-15T02:07:41;101082.47;;;4.64;79.11
47761;BME280;33524;55.434;38.520;2023-05-15T02:10:12;101079.72;;;4.67;80.84
47761;BME280;33524;55.434;38.520;2023-05-15T02:12:48;101078.13;;;4.39;83.42
47761;BME280;33524;55.434;38.520;2023-05-15T02:15:17;101086.78;;;4.40;83.07
47761;BME280;33524;55.434;38.520;2023-05-15T02:17:46;101086.62;;;4.92;75.84
47761;BME280;33524;55.434;38.520;2023-05-15T02:20:15;101078.25;;;4.83;81.11
47761;BME280;33524;55.434;38.520;2023-05-15T02:22:43;101084.00;;;4.70;87.91
47761;BME280;33524;55.434;38.520;2023-05-15T02:25:14;101087.00;;;4.82;87.51
47761;BME280;33524;55.434;38.520;2023-05-15T02:27:59;101070.50;;;4.82;89.19
47761;BME280;33524;55.434;38.520;2023-05-15T02:30:32;101091.69;;;4.96;88.58
47761;BME280;33524;55.434;38.520;2023-05-15T02:33:29;101090.44;;;5.07;89.36
47761;BME280;33524;55.434;38.520;2023-05-15T02:36:01;101095.31;;;5.14;88.32
47761;BME280;33524;55.434;38.520;2023-05-15T02:38:53;101093.09;;;5.27;85.70
47761;BME280;33524;55.434;38.520;2023-05-15T02:41:22;101103.34;;;6.18;69.81
47761;BME280;33524;55.434;38.520;2023-05-15T02:43:51;101108.91;;;6.50;65.89
47761;BME280;33524;55.434;38.520;2023-05-15T02:46:23;101093.41;;;7.04;61.85
47761;BME280;33524;55.434;38.520;2023-05-15T02:48:52;101109.09;;;7.23;60.82
47761;BME280;33524;55.434;38.520;2023-05-15T02:51:21;101107.72;;;7.33;60.26
47761;BME280;33524;55.434;38.520;2023-05-15T02:53:51;101100.03;;;7.30;60.30
47761;BME280;33524;55.434;38.520;2023-05-15T02:56:19;101099.47;;;7.42;59.81
47761;BME280;33524;55.434;38.520;2023-05-15T02:58:48;101103.16;;;7.56;59.27
47761;BME280;33524;55.434;38.520;2023-05-15T03:01:16;101102.81;;;7.63;59.03
47761;BME280;33524;55.434;38.520;2023-05-15T03:03:46;101101.97;;;7.63;58.82
47761;BME280;33524;55.434;38.520;2023-05-15T03:06:14;101104.19;;;7.71;58.90
47761;BME280;33524;55.434;38.520;2023-05-15T03:08:42;101110.00;;;7.77;58.59
47761;BME280;33524;55.434;38.520;2023-05-15T03:11:11;101107.84;;;7.85;59.91
47761;BME280;33524;55.434;38.520;2023-05-15T03:13:39;101109.34;;;7.89;60.53
47761;BME280;33524;55.434;38.520;2023-05-15T03:16:06;101098.44;;;7.99;60.55
47761;BME280;33524;55.434;38.520;2023-05-15T03:18:35;101110.84;;;8.13;60.36
47761;BME280;33524;55.434;38.520;2023-05-15T03:21:03;101098.25;;;8.19;60.31
47761;BME280;33524;55.434;38.520;2023-05-15T03:23:32;101117.34;;;8.39;59.91
47761;BME280;33524;55.434;38.520;2023-05-15T03:26:04;101108.22;;;8.47;58.38
47761;BME280;33524;55.434;38.520;2023-05-15T03:28:32;101116.47;;;8.73;57.98
47761;BME280;33524;55.434;38.520;2023-05-15T03:31:00;101118.69;;;8.97;57.02
47761;BME280;33524;55.434;38.520;2023-05-15T03:33:29;101122.63;;;9.05;60.53
47761;BME280;33524;55.434;38.520;2023-05-15T03:35:58;101126.75;;;9.09;60.16
47761;BME280;33524;55.434;38.520;2023-05-15T03:38:26;101120.41;;;9.45;57.37
47761;BME280;33524;55.434;38.520;2023-05-15T03:40:54;101120.88;;;9.68;57.45
47761;BME280;33524;55.434;38.520;2023-05-15T03:43:22;101113.09;;;9.97;55.30
47761;BME280;33524;55.434;38.520;2023-05-15T03:45:50;101119.75;;;10.33;54.83
47761;BME280;33524;55.434;38.520;2023-05-15T03:48:19;101120.59;;;10.33;58.88
47761;BME280;33524;55.434;38.520;2023-05-15T03:50:47;101112.66;;;10.78;53.80
47761;BME280;33524;55.434;38.520;2023-05-15T03:53:15;101120.06;;;10.71;55.57
47761;BME280;33524;55.434;38.520;2023-05-15T03:55:44;101116.59;;;11.26;52.72
47761;BME280;33524;55.434;38.520;2023-05-15T03:58:12;101109.41;;;11.43;52.91
47761;BME280;33524;55.434;38.520;2023-05-15T04:00:40;101113.84;;;11.82;51.73
47761;BME280;33524;55.434;38.520;2023-05-15T04:03:08;101115.88;;;11.79;52.56
47761;BME280;33524;55.434;38.520;2023-05-15T04:05:37;101107.59;;;11.98;52.91
47761;BME280;33524;55.434;38.520;2023-05-15T04:08:06;101110.47;;;12.33;53.79
47761;BME280;33524;55.434;38.520;2023-05-15T04:10:34;101117.34;;;12.36;53.86
47761;BME280;33524;55.434;38.520;2023-05-15T04:13:02;101114.91;;;12.84;52.40
47761;BME280;33524;55.434;38.520;2023-05-15T04:15:30;101112.47;;;12.04;56.63
47761;BME280;33524;55.434;38.520;2023-05-15T04:17:59;101122.69;;;12.98;53.12
47761;BME280;33524;55.434;38.520;2023-05-15T04:20:27;101105.56;;;12.91;54.27
47761;BME280;33524;55.434;38.520;2023-05-15T04:22:55;101120.12;;;13.46;52.51
47761;BME280;33524;55.434;38.520;2023-05-15T04:25:24;101114.13;;;14.15;50.84
47761;BME280;33524;55.434;38.520;2023-05-15T04:27:52;101120.97;;;14.76;49.81
47761;BME280;33524;55.434;38.520;2023-05-15T04:30:20;101119.03;;;14.66;50.29
47761;BME280;33524;55.434;38.520;2023-05-15T04:32:49;101119.13;;;14.53;50.95
47761;BME280;33524;55.434;38.520;2023-05-15T04:35:18;101117.94;;;15.58;49.18
47761;BME280;33524;55.434;38.520;2023-05-15T04:37:46;101109.13;;;15.89;48.02
47761;BME280;33524;55.434;38.520;2023-05-15T04:40:14;101103.19;;;16.18;47.88
47761;BME280;33524;55.434;38.520;2023-05-15T04:42:43;101107.38;;;16.42;47.43
47761;BME280;33524;55.434;38.520;2023-05-15T04:45:11;101109.88;;;16.64;47.79
47761;BME280;33524;55.434;38.520;2023-05-15T04:47:39;101113.16;;;16.26;46.40
47761;BME280;33524;55.434;38.520;2023-05-15T04:50:08;101112.75;;;16.82;48.02
47761;BME280;33524;55.434;38.520;2023-05-15T04:52:36;101110.06;;;17.13;47.92
47761;BME280;33524;55.434;38.520;2023-05-15T04:55:05;101117.12;;;17.92;46.10
47761;BME280;33524;55.434;38.520;2023-05-15T04:57:33;101112.63;;;18.22;45.85
47761;BME280;33524;55.434;38.520;2023-05-15T05:00:01;101108.59;;;18.55;45.02
47761;BME280;33524;55.434;38.520;2023-05-15T05:02:31;101098.69;;;18.85;44.91
47761;BME280;33524;55.434;38.520;2023-05-15T05:04:59;101109.25;;;19.04;44.51
47761;BME280;33524;55.434;38.520;2023-05-15T05:07:30;101105.78;;;19.40;44.14
47761;BME280;33524;55.434;38.520;2023-05-15T05:09:58;101101.09;;;19.51;43.89
47761;BME280;33524;55.434;38.520;2023-05-15T05:12:27;101100.06;;;19.88;43.31
47761;BME280;33524;55.434;38.520;2023-05-15T05:14:55;101099.00;;;20.25;42.94
47761;BME280;33524;55.434;38.520;2023-05-15T05:17:23;101098.75;;;20.10;43.71
47761;BME280;33524;55.434;38.520;2023-05-15T05:19:51;101106.62;;;19.58;41.79
47761;BME280;33524;55.434;38.520;2023-05-15T05:22:19;101093.69;;;20.86;42.85
47761;BME280;33524;55.434;38.520;2023-05-15T05:24:48;101097.53;;;21.42;41.55
47761;BME280;33524;55.434;38.520;2023-05-15T05:27:16;101082.81;;;21.79;41.28
47761;BME280;33524;55.434;38.520;2023-05-15T05:29:44;101085.31;;;21.89;41.14
47761;BME280;33524;55.434;38.520;2023-05-15T05:32:13;101092.50;;;22.13;40.94
47761;BME280;33524;55.434;38.520;2023-05-15T05:34:41;101086.75;;;22.41;40.69
47761;BME280;33524;55.434;38.520;2023-05-15T05:37:09;101092.56;;;23.00;40.32
47761;BME280;33524;55.434;38.520;2023-05-15T05:39:37;101090.47;;;23.19;39.41
47761;BME280;33524;55.434;38.520;2023-05-15T05:42:05;101096.94;;;23.32;39.46
47761;BME280;33524;55.434;38.520;2023-05-15T05:44:33;101090.38;;;22.64;40.96
47761;BME280;33524;55.434;38.520;2023-05-15T05:47:01;101092.16;;;23.66;39.06
47761;BME280;33524;55.434;38.520;2023-05-15T05:49:30;101084.09;;;23.66;39.68
47761;BME280;33524;55.434;38.520;2023-05-15T05:52:04;101073.38;;;24.04;36.27
47761;BME280;33524;55.434;38.520;2023-05-15T05:54:33;101072.88;;;24.53;38.26
47761;BME280;33524;55.434;38.520;2023-05-15T05:57:01;101082.62;;;23.40;38.59
47761;BME280;33524;55.434;38.520;2023-05-15T05:59:29;101067.87;;;23.82;39.31
47761;BME280;33524;55.434;38.520;2023-05-15T06:01:58;101078.75;;;21.34;45.71
47761;BME280;33524;55.434;38.520;2023-05-15T06:04:26;101071.31;;;24.59;38.97
47761;BME280;33524;55.434;38.520;2023-05-15T06:06:54;101067.78;;;24.94;37.92
47761;BME280;33524;55.434;38.520;2023-05-15T06:09:23;101061.94;;;25.06;37.59
47761;BME280;33524;55.434;38.520;2023-05-15T06:11:51;101062.00;;;24.46;35.00
47761;BME280;33524;55.434;38.520;2023-05-15T06:14:19;101067.59;;;25.54;36.31
47761;BME280;33524;55.434;38.520;2023-05-15T06:16:47;101066.03;;;26.16;36.15
47761;BME280;33524;55.434;38.520;2023-05-15T06:19:16;101058.97;;;26.50;35.39
47761;BME280;33524;55.434;38.520;2023-05-15T06:21:44;101053.44;;;26.23;31.75
47761;BME280;33524;55.434;38.520;2023-05-15T06:24:13;101057.37;;;25.71;36.66
47761;BME280;33524;55.434;38.520;2023-05-15T06:26:41;101045.59;;;27.51;34.53
47761;BME280;33524;55.434;38.520;2023-05-15T06:29:09;101052.66;;;27.52;34.33
47761;BME280;33524;55.434;38.520;2023-05-15T06:31:37;101062.47;;;23.44;37.24
47761;BME280;33524;55.434;38.520;2023-05-15T06:34:06;101057.84;;;26.72;35.86
47761;BME280;33524;55.434;38.520;2023-05-15T06:36:34;101057.47;;;24.62;39.91
47761;BME280;33524;55.434;38.520;2023-05-15T06:39:02;101052.22;;;26.61;35.03
47761;BME280;33524;55.434;38.520;2023-05-15T06:41:31;101054.34;;;24.94;38.36
47761;BME280;33524;55.434;38.520;2023-05-15T06:43:59;101072.94;;;23.31;41.71
47761;BME280;33524;55.434;38.520;2023-05-15T06:46:27;101060.66;;;23.13;40.92
47761;BME280;33524;55.434;38.520;2023-05-15T06:48:56;101072.53;;;22.40;31.45
47761;BME280;33524;55.434;38.520;2023-05-15T06:51:24;101067.59;;;19.57;34.48
47761;BME280;33524;55.434;38.520;2023-05-15T06:53:52;101072.22;;;21.28;44.23
47761;BME280;33524;55.434;38.520;2023-05-15T06:56:20;101056.16;;;24.72;38.97
47761;BME280;33524;55.434;38.520;2023-05-15T06:58:48;101053.47;;;25.73;36.90
47761;BME280;33524;55.434;38.520;2023-05-15T07:01:16;101065.28;;;22.96;33.95
47761;BME280;33524;55.434;38.520;2023-05-15T07:03:45;101056.25;;;25.58;37.17
47761;BME280;33524;55.434;38.520;2023-05-15T07:06:13;101056.91;;;24.22;33.53
47761;BME280;33524;55.434;38.520;2023-05-15T07:08:41;101055.13;;;25.25;37.26
47761;BME280;33524;55.434;38.520;2023-05-15T07:11:09;101054.34;;;25.31;36.49
47761;BME280;33524;55.434;38.520;2023-05-15T07:13:38;101051.16;;;26.62;33.94
47761;BME280;33524;55.434;38.520;2023-05-15T07:16:06;101061.22;;;21.89;38.70
47761;BME280;33524;55.434;38.520;2023-05-15T07:18:35;101057.37;;;21.42;43.07
47761;BME280;33524;55.434;38.520;2023-05-15T07:21:03;101068.03;;;22.32;43.96
47761;BME280;33524;55.434;38.520;2023-05-15T07:23:31;101053.47;;;23.75;39.47
47761;BME280;33524;55.434;38.520;2023-05-15T07:26:00;101057.81;;;24.14;39.46
47761;BME280;33524;55.434;38.520;2023-05-15T07:28:28;101049.41;;;24.17;39.10
47761;BME280;33524;55.434;38.520;2023-05-15T07:30:56;101049.53;;;26.67;34.92
47761;BME280;33524;55.434;38.520;2023-05-15T07:33:24;101031.38;;;28.29;32.30
47761;BME280;33524;55.434;38.520;2023-05-15T07:35:52;101039.53;;;28.74;31.27
47761;BME280;33524;55.434;38.520;2023-05-15T07:38:21;101043.91;;;27.84;33.40
47761;BME280;33524;55.434;38.520;2023-05-15T07:40:49;101028.03;;;30.55;29.44
47761;BME280;33524;55.434;38.520;2023-05-15T07:43:17;101030.13;;;30.53;28.02
47761;BME280;33524;55.434;38.520;2023-05-15T07:45:45;101029.66;;;30.74;29.14
47761;BME280;33524;55.434;38.520;2023-05-15T07:48:19;101028.38;;;31.73;27.94
47761;BME280;33524;55.434;38.520;2023-05-15T07:50:47;101027.09;;;32.11;27.70
47761;BME280;33524;55.434;38.520;2023-05-15T07:53:18;101025.00;;;31.24;28.15
47761;BME280;33524;55.434;38.520;2023-05-15T07:55:46;101028.03;;;26.94;24.51
47761;BME280;33524;55.434;38.520;2023-05-15T07:58:14;101026.78;;;28.30;32.20
47761;BME280;33524;55.434;38.520;2023-05-15T08:00:44;101025.66;;;28.96;32.33
47761;BME280;33524;55.434;38.520;2023-05-15T08:03:13;101024.72;;;28.25;32.67
47761;BME280;33524;55.434;38.520;2023-05-15T08:05:41;101028.56;;;27.91;32.00
47761;BME280;33524;55.434;38.520;2023-05-15T08:08:09;101027.75;;;26.69;35.97
47761;BME280;33524;55.434;38.520;2023-05-15T08:10:38;101029.13;;;27.20;34.59
47761;BME280;33524;55.434;38.520;2023-05-15T08:13:06;101028.56;;;27.44;34.82
47761;BME280;33524;55.434;38.520;2023-05-15T08:15:34;101027.63;;;26.49;35.31
47761;BME280;33524;55.434;38.520;2023-05-15T08:18:09;101025.31;;;25.11;30.80
47761;BME280;33524;55.434;38.520;2023-05-15T08:20:38;101018.81;;;24.03;37.16
47761;BME280;33524;55.434;38.520;2023-05-15T08:23:06;101018.41;;;24.81;33.19
47761;BME280;33524;55.434;38.520;2023-05-15T08:25:35;101017.69;;;23.83;34.30
47761;BME280;33524;55.434;38.520;2023-05-15T08:28:03;101012.78;;;23.02;32.01
47761;BME280;33524;55.434;38.520;2023-05-15T08:30:32;101004.19;;;21.47;45.06
47761;BME280;33524;55.434;38.520;2023-05-15T08:33:00;101015.44;;;19.19;35.36
47761;BME280;33524;55.434;38.520;2023-05-15T08:35:28;101005.84;;;23.31;32.67
47761;BME280;33524;55.434;38.520;2023-05-15T08:37:57;100997.22;;;23.96;34.53
47761;BME280;33524;55.434;38.520;2023-05-15T08:40:26;101007.50;;;21.33;43.37
47761;BME280;33524;55.434;38.520;2023-05-15T08:43:02;101005.19;;;24.64;37.87
47761;BME280;33524;55.434;38.520;2023-05-15T08:45:30;101001.91;;;26.46;34.24
47761;BME280;33524;55.434;38.520;2023-05-15T08:47:59;100996.22;;;25.65;30.91
47761;BME280;33524;55.434;38.520;2023-05-15T08:50:29;101011.72;;;20.60;39.38
47761;BME280;33524;55.434;38.520;2023-05-15T08:52:57;101004.72;;;23.48;39.40
47761;BME280;33524;55.434;38.520;2023-05-15T08:55:28;100993.00;;;28.59;26.79
47761;BME280;33524;55.434;38.520;2023-05-15T08:57:57;100993.44;;;24.21;37.38
47761;BME280;33524;55.434;38.520;2023-05-15T09:00:27;100985.75;;;24.03;39.04
47761;BME280;33524;55.434;38.520;2023-05-15T09:02:58;100983.53;;;26.63;33.64
47761;BME280;33524;55.434;38.520;2023-05-15T09:05:28;100973.97;;;29.04;29.93
47761;BME280;33524;55.434;38.520;2023-05-15T09:07:58;100983.44;;;24.81;30.00
47761;BME280;33524;55.434;38.520;2023-05-15T09:10:32;100983.63;;;22.68;30.89
47761;BME280;33524;55.434;38.520;2023-05-15T09:13:13;100977.56;;;26.88;33.58
47761;BME280;33524;55.434;38.520;2023-05-15T09:15:41;100981.75;;;27.17;33.03
47761;BME280;33524;55.434;38.520;2023-05-15T09:18:14;100968.28;;;29.44;30.21
47761;BME280;33524;55.434;38.520;2023-05-15T09:20:42;100966.16;;;26.99;33.37
47761;BME280;33524;55.434;38.520;2023-05-15T09:23:26;100967.62;;;27.22;25.51
47761;BME280;33524;55.434;38.520;2023-05-15T09:25:56;100958.94;;;28.31;31.97
47761;BME280;33524;55.434;38.520;2023-05-15T09:28:29;100958.72;;;27.14;23.06
47761;BME280;33524;55.434;38.520;2023-05-15T09:31:03;100937.94;;;31.42;27.75
47761;BME280;33524;55.434;38.520;2023-05-15T09:33:39;100937.63;;;32.55;25.73
47761;BME280;33524;55.434;38.520;2023-05-15T09:36:21;100927.16;;;32.06;26.89
47761;BME280;33524;55.434;38.520;2023-05-15T09:38:57;100936.41;;;31.23;24.37
47761;BME280;33524;55.434;38.520;2023-05-15T09:41:26;100933.56;;;32.29;26.70
47761;BME280;33524;55.434;38.520;2023-05-15T09:43:55;100929.75;;;33.04;25.48
47761;BME280;33524;55.434;38.520;2023-05-15T09:46:23;100936.06;;;31.43;26.59
47761;BME280;33524;55.434;38.520;2023-05-15T09:48:55;100930.84;;;30.33;21.40
47761;BME280;33524;55.434;38.520;2023-05-15T09:51:23;100916.72;;;32.89;26.38
47761;BME280;33524;55.434;38.520;2023-05-15T09:53:52;100909.59;;;32.88;17.82
47761;BME280;33524;55.434;38.520;2023-05-15T09:56:20;100911.91;;;32.63;26.70
47761;BME280;33524;55.434;38.520;2023-05-15T09:58:58;100907.91;;;33.16;22.02
47761;BME280;33524;55.434;38.520;2023-05-15T10:01:26;100911.28;;;32.15;27.46
47761;BME280;33524;55.434;38.520;2023-05-15T10:04:08;100909.34;;;31.63;21.04
47761;BME280;33524;55.434;38.520;2023-05-15T10:06:46;100914.87;;;28.69;20.84
47761;BME280;33524;55.434;38.520;2023-05-15T10:09:15;100901.59;;;33.15;19.77
47761;BME280;33524;55.434;38.520;2023-05-15T10:11:50;100912.25;;;32.83;25.63
47761;BME280;33524;55.434;38.520;2023-05-15T10:14:22;100907.81;;;31.32;19.50
47761;BME280;33524;55.434;38.520;2023-05-15T10:16:53;100903.81;;;30.38;19.86
47761;BME280;33524;55.434;38.520;2023-05-15T10:19:24;100906.22;;;25.87;24.47
47761;BME280;33524;55.434;38.520;2023-05-15T10:21:55;100909.16;;;29.96;22.68
47761;BME280;33524;55.434;38.520;2023-05-15T10:24:29;100899.34;;;32.62;27.21
47761;BME280;33524;55.434;38.520;2023-05-15T10:26:57;100892.84;;;32.80;26.91
47761;BME280;33524;55.434;38.520;2023-05-15T10:29:27;100897.06;;;32.87;24.99
47761;BME280;33524;55.434;38.520;2023-05-15T10:31:57;100887.84;;;33.22;26.50
47761;BME280;33524;55.434;38.520;2023-05-15T10:34:29;100881.66;;;31.78;26.92
47761;BME280;33524;55.434;38.520;2023-05-15T10:36:59;100891.47;;;30.24;31.09
47761;BME280;33524;55.434;38.520;2023-05-15T10:39:28;100891.66;;;30.71;23.93
47761;BME280;33524;55.434;38.520;2023-05-15T10:41:58;100895.41;;;23.87;23.48
47761;BME280;33524;55.434;38.520;2023-05-15T10:44:26;100900.72;;;23.80;29.60
47761;BME280;33524;55.434;38.520;2023-05-15T10:46:54;100891.63;;;29.37;32.09
47761;BME280;33524;55.434;38.520;2023-05-15T10:49:23;100887.84;;;31.38;27.59
47761;BME280;33524;55.434;38.520;2023-05-15T10:51:51;100889.03;;;31.54;27.77
47761;BME280;33524;55.434;38.520;2023-05-15T10:54:21;100893.00;;;32.90;20.61
47761;BME280;33524;55.434;38.520;2023-05-15T10:56:49;100885.63;;;26.96;22.53
47761;BME280;33524;55.434;38.520;2023-05-15T10:59:18;100878.78;;;31.96;20.51
47761;BME280;33524;55.434;38.520;2023-05-15T11:01:46;100881.31;;;34.61;23.09
47761;BME280;33524;55.434;38.520;2023-05-15T11:04:17;100887.97;;;30.05;18.93
47761;BME280;33524;55.434;38.520;2023-05-15T11:06:48;100881.56;;;27.72;22.67
47761;BME280;33524;55.434;38.520;2023-05-15T11:11:56;100885.94;;;28.70;20.36
47761;BME280;33524;55.434;38.520;2023-05-15T11:14:28;100888.88;;;25.62;24.13
47761;BME280;33524;55.434;38.520;2023-05-15T11:17:01;100891.97;;;25.93;23.99
47761;BME280;33524;55.434;38.520;2023-05-15T11:22:40;100880.13;;;26.43;22.46
47761;BME280;33524;55.434;38.520;2023-05-15T11:25:14;100879.25;;;27.82;31.17
47761;BME280;33524;55.434;38.520;2023-05-15T11:27:44;100881.94;;;26.35;26.19
47761;BME280;33524;55.434;38.520;2023-05-15T11:30:18;100876.34;;;23.96;26.54
47761;BME280;33524;55.434;38.520;2023-05-15T11:33:00;100893.63;;;22.03;26.86
47761;BME280;33524;55.434;38.520;2023-05-15T11:40:46;100878.41;;;22.66;26.41
47761;BME280;33524;55.434;38.520;2023-05-15T11:43:28;100878.03;;;22.92;26.99
47761;BME280;33524;55.434;38.520;2023-05-15T11:46:07;100870.69;;;23.32;26.44
47761;BME280;33524;55.434;38.520;2023-05-15T11:48:40;100868.66;;;23.79;28.87
47761;BME280;33524;55.434;38.520;2023-05-15T11:51:18;100866.72;;;24.24;25.87
47761;BME280;33524;55.434;38.520;2023-05-15T11:53:54;100858.78;;;24.73;24.80
47761;BME280;33524;55.434;38.520;2023-05-15T11:56:24;100846.87;;;25.11;24.69
47761;BME280;33524;55.434;38.520;2023-05-15T11:58:56;100844.84;;;25.41;25.84
47761;BME280;33524;55.434;38.520;2023-05-15T12:01:25;100841.72;;;25.79;23.99
47761;BME280;33524;55.434;38.520;2023-05-15T12:03:54;100842.31;;;26.16;23.91
47761;BME280;33524;55.434;38.520;2023-05-15T12:06:23;100840.87;;;26.33;22.68
47761;BME280;33524;55.434;38.520;2023-05-15T12:08:51;100839.03;;;26.41;21.96
47761;BME280;33524;55.434;38.520;2023-05-15T12:11:21;100836.59;;;27.12;23.11
47761;BME280;33524;55.434;38.520;2023-05-15T12:13:51;100827.31;;;27.87;22.18
47761;BME280;33524;55.434;38.520;2023-05-15T12:16:27;100816.22;;;28.33;20.86
47761;BME280;33524;55.434;38.520;2023-05-15T12:18:56;100822.63;;;29.21;21.28
47761;BME280;33524;55.434;38.520;2023-05-15T12:21:26;100818.84;;;29.22;20.76
47761;BME280;33524;55.434;38.520;2023-05-15T12:23:54;100824.50;;;28.95;20.53
47761;BME280;33524;55.434;38.520;2023-05-15T12:26:28;100828.69;;;27.17;22.22
47761;BME280;33524;55.434;38.520;2023-05-15T12:28:56;100825.81;;;26.66;22.41
47761;BME280;33524;55.434;38.520;2023-05-15T12:31:24;100825.50;;;26.14;22.71
47761;BME280;33524;55.434;38.520;2023-05-15T12:33:53;100825.12;;;25.06;23.22
47761;BME280;33524;55.434;38.520;2023-05-15T12:36:21;100834.28;;;23.74;25.23
47761;BME280;33524;55.434;38.520;2023-05-15T12:38:49;100832.56;;;22.75;26.74
47761;BME280;33524;55.434;38.520;2023-05-15T12:41:18;100830.19;;;22.03;27.65
47761;BME280;33524;55.434;38.520;2023-05-15T12:43:47;100828.06;;;21.59;29.03
47761;BME280;33524;55.434;38.520;2023-05-15T12:46:21;100829.63;;;21.21;29.63
47761;BME280;33524;55.434;38.520;2023-05-15T12:48:50;100826.97;;;21.04;30.08
47761;BME280;33524;55.434;38.520;2023-05-15T12:51:21;100825.59;;;21.33;28.20
47761;BME280;33524;55.434;38.520;2023-05-15T12:53:53;100817.72;;;23.55;25.53
47761;BME280;33524;55.434;38.520;2023-05-15T12:56:21;100811.28;;;25.85;23.55
47761;BME280;33524;55.434;38.520;2023-05-15T12:58:50;100800.75;;;27.70;21.02
47761;BME280;33524;55.434;38.520;2023-05-15T13:01:21;100795.44;;;28.27;18.73
47761;BME280;33524;55.434;38.520;2023-05-15T13:03:50;100789.97;;;29.16;19.46
47761;BME280;33524;55.434;38.520;2023-05-15T13:06:18;100791.94;;;29.94;19.15
47761;BME280;33524;55.434;38.520;2023-05-15T13:08:53;100784.81;;;30.42;17.79
47761;BME280;33524;55.434;38.520;2023-05-15T13:11:21;100775.78;;;30.95;17.41
47761;BME280;33524;55.434;38.520;2023-05-15T13:13:49;100773.22;;;31.82;16.27
47761;BME280;33524;55.434;38.520;2023-05-15T13:16:24;100784.12;;;32.27;15.59
47761;BME280;33524;55.434;38.520;2023-05-15T13:18:54;100780.53;;;31.52;15.36
47761;BME280;33524;55.434;38.520;2023-05-15T13:21:24;100772.44;;;31.98;15.00
47761;BME280;33524;55.434;38.520;2023-05-15T13:23:52;100773.59;;;31.33;15.00
47761;BME280;33524;55.434;38.520;2023-05-15T13:26:20;100767.84;;;27.80;18.25